GCXO/TFN METAR and TAF weather

Enter ICAO airport designator
Station Type Date Time Source
GCXO METAR 2018/07/21 22:30 UTC NOAA

GCXO 212230Z AUTO 31016KT 9999 BKN002/// BKN006/// OVC011/// 17/16 Q1020


Station Type Date Time Source
GCXO Decoded METAR 2018/07/21 22:30 UTC NOAA

Tenerife / Los Rodeos, Spain (GCXO) 28-28N 016-19W 617M
Jul 21, 2018 - 06:30 PM EDT / 2018.07.21 2230 UTC
Wind: from the NW (310 degrees) at 18 MPH (16 KT):0
Visibility: greater than 7 mile(s):0
Sky conditions: overcast
Temperature: 62 F (17 C)
Dew Point: 60 F (16 C)
Relative Humidity: 93%
Pressure (altimeter): 30.12 in. Hg (1020 hPa)
ob: GCXO 212230Z AUTO 31016KT 9999 BKN002/// BKN006/// OVC011/// 17/16 Q1020
cycle: 22

Station Type Date Time Source
GCXO TAF 2018/07/21 21:31 UTC NOAA

TAF GCXO 212000Z 2121/2221 30020KT 9999 BKN008 TX22/2214Z TN16/2205Z PROB40
TEMPO 2121/2209 3500 BCFG BKN004 PROB30
TEMPO 2122/2208 0800 FG BKN001
BECMG 2208/2210 SCT012


Example: see airport list